KGAI

Details ICAO KGAI (GAI)
Name MONTGOMERY CO AIRPARK
Region United States
Timezone America/New_York (UTC-4.0)
Plans Departing 48
Arriving 19
Stats Elevation 539 ft / 164 m (AMSL)
Location 39.168286° -77.165966°
Runways 1
Magnetic Variation 10.816° W
Sunrise 2018-05-21 09:52:04 UTC / 2018-05-21 05:52:04 Local
Sunset 2018-05-22 00:21:20 UTC / 2018-05-21 20:21:20 Local
Advertisement - Login to hide

Runways

ID Width Length Bearing (true) Bearing (mag) Surface Threshold Offset Overrun Length
14 75 ft / 23 m 4,233 ft / 1,290 m 127.52° 138.34° Asphalt 0 ft / 0 m 0 ft / 0 m
32 75 ft / 23 m 4,233 ft / 1,290 m 307.53° 318.35° Asphalt 0 ft / 0 m 0 ft / 0 m

Map

Weather


0- 5 10 15 20 25 30 35+ Temperature / ° C

Clouds and Precipitation
Forecast for 2018-05-21 12:00 UTC. Updated 7 minutes ago

Ground ~20,000 ft ~40,000 ft Winds

METAR

KGAI 211056Z AUTO 00000KT 10SM CLR 18/15 A3019 RMK AO2 SLP246 T01780150

TAF

Not found

Frequencies

Recorded 128.27 MHz AWOS 3
Clearance 121.60 MHz POTOMAC CLNC DEL
Unicom 123.07 MHz CTAF/UNICOM
Approach 128.70 MHz POTOMAC APP/DEP
Warning: Do not use this data for real-world aviation or navigation. No guarantee of current accuracy is given.